LIMA 231350Z 10002KT 7000 NSC 18/09 Q1023 LIMG 231350Z 02010KT 320V060 CAVOK 22/05 Q1020 EDAC 231450Z 30006KT 260V330 9999 FEW049 09/04 Q1028 ETHA 231420Z AUTO 05007KT //// // ////// 09/01 Q1027 /// LFLP 231430Z AUTO 03004KT 290V080 CAVOK 14/04 Q1024 NOSIG LIMW 231450Z AUTO 10008KT 9999 NCD 17/06 Q1023 LEAS 231430Z 04003KT 340V100 CAVOK 18/12 Q1020 NOSIG EDMA 231450Z 01005KT CAVOK 10/02 Q1028 EHMA 231425Z AUTO 21018KT 180V240 9999 NSC 11/07 Q1025 LFSB 231430Z 36004KT 320V060 9999 FEW045 14/04 Q1026 NOSIG EGAC 231450Z AUTO 20018G27KT 9999 BKN026/// 14/09 Q1012 EGAA 231450Z AUTO 20013KT 160V220 9999 OVC022 13/09 Q1012 LIME 231450Z 24004KT 200V260 9000 NSC 17/12 Q1023 NOSIG EDDB 231450Z 30008KT 9999 FEW032 10/04 Q1026 NOSIG LSZB 231450Z 33008KT 280V010 CAVOK 12/04 Q1025 NOSIG EBLG 231450Z 16003KT 9999 FEW020 11/07 Q1028 NOSIG LIPE 231450Z 03004KT 8000 FEW030 18/13 Q1023 LIPB 231450Z 23003KT CAVOK 18/05 Q1022 EDVE 231450Z 28005KT CAVOK 11/05 Q1027 EDDW 231450Z 29006KT 9999 FEW028 SCT043 11/05 Q1027 NOSIG LIPO 231450Z AUTO VRB02KT 9999 NCD 19/12 Q1023 ETHB 231420Z AUTO 28006KT 9999 // ////// 11/04 Q1027 /// ETSB 231420Z AUTO 08006KT 8000 // ////// 08/06 Q1027 /// LSZC 231450Z AUTO 20003KT 9999 NCD 12/04 Q1026 LFMD 231430Z AUTO 10005KT 050V160 CAVOK 22/10 Q1020 NOSIG LIMU 231355Z 05017KT CAVOK 24/10 Q1020 RMK SKC QUK 3 QUL 1 E VIS MAR 30 KM VIS MIN 9999 EIME 231400Z 20022KT 9999 FEW022 BKN150 13/09 Q1013 ETHC 231420Z AUTO 26005KT 7000 // ////// 11/05 Q1027 /// LIPC 231355Z 08002KT 6000 SCT015 BKN018 16/14 Q1022 RMK OVC VIS MIN 6000 WIND THR11 11003KT WIND THR29 08003KT WHT LFLB 231430Z AUTO 34009KT 9999 // ////// 15/05 Q1024 LIVC 231355Z AUTO 04006KT //// 04/02 Q1025 LFGA 231430Z AUTO 02010KT CAVOK 14/03 Q1027 EICK 231430Z 18015KT 6000 -RADZ BKN012 13/11 Q1013 NOSIG EGDR 231350Z AUTO 17012KT 9999 // BKN032/// SCT044/// 13/08 Q1021 EHDL 231455Z AUTO 19005KT 130V240 9999 OVC057 12/09 Q1027 BLU LFSD 231430Z AUTO 05008KT 010V080 CAVOK 14/04 Q1026 LFGJ 231430Z AUTO 04013KT CAVOK 14/04 Q1025 NOSIG EDLW 231450Z 23004KT 200V270 CAVOK 11/04 Q1028 EDDC 231450Z 28008KT 230V320 9999 -SHRA SCT024 BKN040 08/04 Q1027 NOSIG LSMD 231450Z AUTO 06008KT 9999NDV NCD 12/02 Q1027 RMK EIDW 231430Z 19011G27KT 150V250 9999 FEW014 BKN030 13/09 Q1014 NOSIG EDDL 231450Z 17006KT 9999 FEW030 12/07 Q1028 NOSIG EHEH 231455Z AUTO 20006KT 160V230 9999 FEW021 13/08 Q1027 BLU TEMPO SCT018 EBLB 231425Z AUTO VRB01KT 9999 BKN036/// 09/04 Q1027 BLU LSME 231450Z AUTO 01004KT 320V030 9999NDV NCD 12/04 Q1026 RMK LFSG 231430Z AUTO 04010KT 9999 FEW043 12/04 Q1027 EDDE 231450Z 27007KT 9999 FEW030 BKN045 09/03 Q1028 NOSIG LIPY 231450Z AUTO 34007KT 7000 ///////// 17/16 Q1022 ETHS 231420Z AUTO 30006KT 9999 // ////// 11/05 Q1026 /// LIRQ 231450Z 03009KT 350V060 CAVOK 21/11 Q1020 LIPK 231450Z 25004KT 4000 BR FEW010 BKN015 17/13 Q1023 EDDF 231450Z 23004KT 200V270 9999 FEW036 13/03 Q1029 NOSIG EDNY 231450Z 06008KT CAVOK 12/03 Q1027 ETHF 231420Z 26003KT 9999 SCT048 SCT250 11/01 Q1028 BLU+ LIVF 231355Z 00000KT 5000 BR SCT006 BKN022 13/13 Q1021 RMK OVC MON S W CIME INC NC VAL FOSCHIA AUM VIS MIN 5000 EHHW 231425Z AUTO 20016KT 9999 FEW023/// BKN031/// BKN041/// 12/07 Q1025 LSGG 231450Z 05010KT CAVOK 13/04 Q1025 NOSIG LIMJ 231450Z 04014KT CAVOK 18/11 Q1021 LIPL 231355Z 21002KT 6000 SCT030 17/11 Q1022 RMK SCT VIS MIN 6000 WIND THR31 27002KT WIND THR13 20002KT WHT LIMV 231355Z /////KT 2000 0800N BCFG OVC003 11/10 Q1023 RMK OVC MON INVIS ABB SLW VAL N INVIS S FOSCHIA VIS MIN 0800N ETIC 231356Z AUTO 29005KT 9000 HZ BKN049 08/M01 A3034 RMK AO2 SLP288 T00841006 $ LSZG 231450Z AUTO 09011KT 9999 NCD 12/02 Q1026 LFLS 231430Z AUTO 34007KT 300V010 CAVOK 12/02 Q1025 NOSIG EHGG 231455Z AUTO 19005KT 160V220 9999 SCT030 BKN035 OVC046 11/07 Q1026 NOSIG EDFH 231450Z VRB02KT 9999 SCT036 10/03 Q1028 EDHI 231450Z AUTO 27007KT 9999 // FEW030/// BKN037/// OVC053/// 10/08 Q1026 EDDH 231450Z 25009KT 220V280 9999 FEW016 BKN046 10/07 Q1026 NOSIG EDDV 231450Z 25004KT 220V280 9999 FEW032 BKN045 11/05 Q1027 NOSIG EDAH 231450Z 30006KT 260V330 CAVOK 10/04 Q1024 ETIH 231356Z AUTO 31004KT 9999 BKN042 BKN049 09/00 A3036 RMK AO2 SLP291 T00900002 ETNH 231420Z 27007KT 9999 FEW030 BKN045 BKN240 11/05 Q1025 BLU ETSH 231420Z 28008KT 9999 FEW028 BKN050 10/04 Q1026 BLU LFTH 231430Z AUTO 10010KT CAVOK 21/13 Q1020 TEMPO 04006KT ETIK 231356Z AUTO 30004KT 9999 OVC043 10/04 A3039 RMK AO2 SLP300 T00990038 ETSI 231420Z 03003KT 9999 FEW045 12/01 Q1028 BLU+ LOWI 231450Z 12005KT 080V160 CAVOK 13/03 Q1026 NOSIG LIPS 231355Z 12007KT CAVOK 20/11 Q1022 RMK SKC VIS MIN 9999 WIND THR26 06005KT WIND THR08 10006KT BLK BLU LKKV 231430Z 27006KT 9999 BKN048 07/M00 Q1027 EDSB 231450Z 03010KT CAVOK 14/06 Q1028 EDVK 231450Z 29005KT 9999 FEW035 BKN045 10/01 Q1028 ETEB 231356Z AUTO 34004KT 9999 OVC044 09/01 A3036 RMK AO2 SLP304 T00870014 $ LKKB 231400Z 28009KT 9999 BKN046 10/M00 Q1027 NOSIG EIKY 231430Z 19014KT 9999 -RA SCT024 14/12 Q1010 EDHK 231450Z 28006KT CAVOK 09/03 Q1025 LOWK 231450Z 09006KT 060V120 9999 FEW030 SCT045 13/06 Q1025 NOSIG EBBL 231425Z AUTO 19003KT 9999 FEW021/// 13/08 Q1027 BLU EDDK 231450Z 08003KT 9999 FEW016 BKN047 12/07 Q1028 NOSIG LECO 231430Z 02004KT 340V080 CAVOK 17/12 Q1021 NOSIG ETNL 231420Z 29010KT 9999 FEW030 10/05 Q1025 BLU+ EDTL 231450Z 01007KT CAVOK 13/05 Q1028 EGHC 231450Z 18018KT 9999 FEW024 BKN034 12/09 Q1020 ETHL 231420Z 08007KT 9999 FEW030 SCT040 11/01 Q1027 BLU+ LFMC 231430Z AUTO 12008KT 080V150 9999 ////// 22/10 Q1020 ETSL 231420Z AUTO 35005KT 9999 // ////// 10/02 Q1027 /// EHLW 231455Z AUTO 19008KT 160V220 9999 FEW058 BKN390 11/08 Q1026 BLU EDDP 231450Z 26008KT 9999 FEW033 10/06 Q1028 NOSIG EHLE 231455Z AUTO 19006KT 9999 NSC 11/09 Q1026 NOSIG LSGC 231450Z 11005KT 060V130 CAVOK 09/00 Q1025 LIMZ 231450Z AUTO 07003KT 020V100 9999 NCD 17/09 Q1023 LOWL 231450Z 30011KT 9999 FEW028 11/04 Q1028 NOSIG LJLJ 231430Z VRB02KT 9999 FEW020 BKN045 10/06 Q1027 NOSIG LSZL 231450Z AUTO VRB02KT 9999NDV NCD 17/05 Q1023 RMK EDHL 231450Z 25004KT 210V300 9999 FEW025 10/05 Q1026 LSZA 231450Z 18003KT 140V210 8000 FEW045 17/10 Q1023 NOSIG ELLX 231450Z 10005KT 070V130 9999 FEW020 SCT044 10/07 Q1028 NOSIG LFSX 231430Z AUTO 16006KT 130V190 CAVOK 15/03 Q1026 LFLL 231430Z 01006KT 320V050 9999 FEW036 13/04 Q1025 NOSIG EDFM 231450Z 06004KT 9999 FEW034 13/03 Q1029 LFML 231430Z AUTO 30008KT CAVOK 20/10 Q1020 NOSIG ETGG 231420Z AUTO 31011KT 9999 // ////// 12/04 Q1024 /// LSMM 231450Z AUTO 04015G25KT 010V090 9999NDV NCD 10/03 Q1025 RMK EDJA 231450Z 04007KT 9999 FEW036 09/02 Q1027 ETWM 231420Z AUTO 23004KT //// // ////// 11/05 Q1027 /// LFJL 231430Z AUTO 05008KT 9999 OVC047 12/05 Q1028 NOSIG LIML 231450Z VRB01KT 6000 FEW015 17/12 Q1023 NOSIG LIMC 231450Z VRB01KT 7000 NSC 18/12 Q1023 NOSIG EDLN 231450Z 13003KT CAVOK 11/07 Q1028 EDDG 231450Z 25007KT 9999 FEW032 12/04 Q1028 NOSIG EDDM 231450Z 33005KT 9999 FEW033 10/03 Q1028 NOSIG LFSN 231430Z AUTO 04008KT 9999 BKN048 13/05 Q1028 LFSO 231430Z AUTO 06008KT 030V110 9999 BKN043 13/04 Q1027 ETSN 231420Z 35006KT 9999 FEW044 11/02 Q1028 BLU+ LFMN 231430Z 07010KT CAVOK 22/13 Q1020 NOSIG EDLV 231450Z 18007KT CAVOK 14/06 Q1027 ETHN 231420Z 03003KT 9999 FEW025 BKN035 09/02 Q1028 BLU ETNN 231420Z AUTO 11003KT 9999 // ////// 12/06 Q1028 /// ETMN 231420Z 26008KT 9999 FEW020 BKN045 11/06 Q1026 BLU EDDN 231450Z 34003KT 290V010 9999 FEW025 BKN046 10/03 Q1029 NOSIG EDMO 231450Z AUTO 35006KT 9999 // NCD 09/03 Q1028 EDLP 231450Z 25004KT 210V310 9999 FEW035 10/01 Q1028 LIVP 231355Z 27003KT CAVOK 04/M06 Q1024 RMK SKC MON LIB VAL NIL VIS MIN 9999 LIMP 231350Z VRB04KT 5000 BR SCT030 19/12 Q1023 LSMP 231450Z AUTO 05008KT 020V080 9999NDV NCD 12/04 Q1026 RMK LIRZ 231450Z AUTO 03010KT 9999 SCT084/// 19/14 Q1020 LIMS 231355Z 33003KT 3200 BR SCT015 15/14 Q1022 RMK SCT VIS MIN 3200 WIND THR30 32002KT YLO LIMH 231355Z 24006KT CAVOK M03/M06 Q1027 RMK SKC MON LIB VAL S FOSCHIA CLD SCT VIS MIN 9999 LIRP 231445Z 03009KT 9999 FEW030 23/10 Q1020 NOSIG LKLN 231400Z AUTO VRB05KT 9999 BKN050 11/M02 Q1028 LIVM 231355Z AUTO 02004KT //// 17/14 Q1023 LJPZ 231430Z 08006KT 040V120 CAVOK 18/06 Q1022 LKPR 231430Z 29007KT 270V330 9999 FEW046 10/M01 Q1027 NOSIG LDPL 231430Z 06011KT 010V080 CAVOK 17/06 Q1022 NOSIG LIVE 231355Z 36006KT CAVOK 12/M07 Q1023 RMK SKC VIS MIN 9999 LSZR 231450Z VRB03KT CAVOK 13/03 Q1026 NOSIG RMK J LDRI 231430Z 05010KT CAVOK 16/01 Q1023 LIPR 231450Z 32006KT 6000 -RA SCT007 BKN012 16/15 Q1023 LIPI 231355Z 07012KT CAVOK 18/07 Q1022 RMK SKC VIS MIN 9999 WIND THR06 09011KT WIND THR24 08010KT BLU LIVR 231155Z 15005KT 9999 SCT030 07/01 Q1025 RMK SCT MON CLD SCT VIS MIN 9999 LIPQ 231450Z AUTO 11010KT 9999 NCD 16/06 Q1023 EDDR 231450Z VRB02KT 9999 FEW024 BKN045 11/06 Q1028 NOSIG LFMY 231430Z AUTO 33014KT CAVOK 18/06 Q1021 LOWS 231450Z 34006KT 9999 FEW050 11/02 Q1028 NOSIG LSZS 231450Z VRB02KT CAVOK 11/M13 Q1024 RMK S TL170 EBDT 231425Z AUTO 16004KT 9999 FEW024/// SCT056/// 13/08 Q1027 BLU ETNS 231420Z AUTO 26009KT 7000 // ////// 11/05 Q1025 /// EDTY 231450Z 03005KT 9999 SCT044 09/03 Q1029 EGHE 231450Z 19029KT 9999 FEW020 BKN040 14/10 Q1019 EINN 231430Z 16020KT 9999 FEW012 BKN020 BKN060 14/12 Q1010 NOSIG EDGS 231450Z 32005KT 9999 FEW021 OVC028 07/02 Q1028 LSGS 231450Z 26011KT CAVOK 13/05 Q1023 EISG 231430Z 15012KT 120V190 3500 BKN018 OVC024 12/10 Q1008 EKSB 231450Z AUTO 26004KT 230V300 9999 NCD 10/05 Q1025 ETAD 231456Z AUTO 22003KT 9999 FEW022 SCT034 BKN043 11/06 A3035 RMK AO2 SLP275 T01070055 55002 $ LFST 231430Z AUTO 02007KT 350V050 9999 BKN054 14/03 Q1028 NOSIG EDDS 231450Z 03009KT 9999 FEW040 SCT046 11/03 Q1028 NOSIG EPSC 231430Z 29016KT 9999 FEW031 10/04 Q1023 LIVO 231355Z 06005G18KT CAVOK 10/06 Q1023 RMK SKC VIS MIN 9999 LIMK 231355Z 04003KT 9999 SCT020 13/11 Q1023 RMK SCT VAL FOSCHIA VIS MIN 9999 LIMF 231450Z 07005KT 8000 NSC 17/09 Q1023 LIPH 231450Z 15005KT 090V190 9999 FEW040 20/12 Q1022 LIVT 231355Z 04014KT CAVOK 16/05 Q1022 RMK SKC QUK 4 QUL 2 NE VIS MAR 20 KM VIS MIN 9999 LIPZ 231450Z 11009KT CAVOK 18/10 Q1022 NOSIG EHVK 231455Z AUTO 20007KT 160V230 9999 OVC059 13/08 Q1027 BLU EIWF 231430Z 21023KT 9999 BKN023 13/09 Q1016 EDXW 231450Z 26007KT 9999 SCT045 11/05 Q1025 ETOU 231456Z AUTO 00000KT 9999 SCT050 11/M00 A3038 RMK AO2 SLP293 T01141004 55001 $ ETNT 231420Z 25006KT 9999 FEW032 SCT360 12/05 Q1026 BLU+ ETNW 231420Z AUTO 28006KT 6000 // ////// 11/05 Q1027 /// LOXZ 231450Z 08007KT 50KM FEW050CU 13/M01 Q1025 NOSIG EHBK 231455Z AUTO 15005KT 130V190 9999 NCD 13/08 Q1027 NOSIG LSZH 231450Z 07009KT 040V100 CAVOK 12/02 Q1027 NOSIG

METAR Messwerte

Klicken Sie auf einen Ort, um die 36h-Historie abzurufen

Ort
m ü. NN
Zeit Temperatur Taupunkt Rel.
Luftfeuchte
Luftdruck:
Altimeter
NN
Station
Wind in Beaufort
(Knoten)
Sichtweite
(Meter)
Wolken
(Meter über Grund)
Wettererscheinung
AERITALIA
287
Sa 23.10. 15:5018956 %1023
1023
989
O 1 (2)7000Nicht signifikant 
ALBENGA
49
Sa 23.10. 15:5022533 %1020
1020
1014
NNO 3 (10)
NW - ONO
>= 10000Nicht signifikant 
ALTENBURG-NOBITZ
195
Sa 23.10. 16:509471 %1028
1029
1005
WNW 2 (6)
W - NNW
>= 10000Leicht bewölkt (1500) 
ALTENSTADT/SCHON
760
Sa 23.10. 16:209157 %1027
1029
938
NO 3 (7)   
ANNECY/MEYTHET
463
Sa 23.10. 16:3014451 %1024
1024
969
NNO 2 (4)
WNW - O
>= 10000Nicht signifikant 
AOSTA ARPT
546
Sa 23.10. 16:5017648 %1023
1023
959
O 3 (8)>= 10000  
ASTURIAS/AVILES
134
Sa 23.10. 16:30181268 %1020
1020
1004
NO 2 (3)
NNW - O
>= 10000Nicht signifikant 
AUGSBURG/MULHAUS
463
Sa 23.10. 16:5010257 %1028
1029
973
N 2 (5)>= 10000Nicht signifikant 
AWG-1 SEA
50
Sa 23.10. 16:2511776 %1025
1025
1019
SSW 5 (18)
S - WSW
>= 10000Nicht signifikant 
BALE/MULHOUSE
271
Sa 23.10. 16:3014451 %1026
1026
994
N 2 (4)
NW - ONO
>= 10000Leicht bewölkt (1400) 
BELFAST HARBOUR
5
Sa 23.10. 16:5014972 %1012
1012
1011
SSW 5 (18) - 7 (27)>= 10000Stark bewölkt (790) 
BELFAST/ALDERGRO
81
Sa 23.10. 16:5013977 %1012
1012
1002
SSW 4 (13)
SSO - SW
>= 10000Bedeckt (670) 
BERGAMO/ORIO SER
237
Sa 23.10. 16:50171272 %1023
1023
995
WSW 2 (4)
SSW - W
9000Nicht signifikant 
BERLIN/SCHONEFEL
48
Sa 23.10. 16:5010466 %1026
1026
1020
WNW 3 (8)>= 10000Leicht bewölkt (980) 
BERN/BELP
505
Sa 23.10. 16:5012458 %1025
1026
965
NNW 3 (8)
W - N
>= 10000Nicht signifikant 
BIERSET/LIEGE (C
178
Sa 23.10. 16:5011776 %1028
1028
1007
SSO 2 (3)>= 10000Leicht bewölkt (610) 
BOLOGNA/BORGO (A
42
Sa 23.10. 16:50181373 %1023
1023
1018
NNO 2 (4)8000Leicht bewölkt (910) 
BOLZANO(CIV/IT-A
241
Sa 23.10. 16:5018542 %1022
1022
993
SW 2 (3)>= 10000Nicht signifikant 
BRAUNSCHWEIG
88
Sa 23.10. 16:5011566 %1027
1027
1016
W 2 (5)>= 10000Nicht signifikant 
BREMEN
5
Sa 23.10. 16:5011566 %1027
1027
1026
WNW 2 (6)>= 10000Wolkig (1300)
Leicht bewölkt (850)
 
BRESCIA/MONTICHI
109
Sa 23.10. 16:50191264 %1023
1023
1010
Uml 1 (2)>= 10000  
BUCKEBURG(GER-AR
78
Sa 23.10. 16:2011462 %1027
1027
1018
W 2 (6)>= 10000  
BUECHEL
486
Sa 23.10. 16:208687 %1027
1029
969
O 2 (6)8000  
BUOCHS
450
Sa 23.10. 16:5012458 %1026
1027
973
SSW 2 (3)>= 10000  
CANNES/MANDELIEU
9
Sa 23.10. 16:30221046 %1020
1020
1019
O 2 (5)
NO - SSO
>= 10000Nicht signifikant 
CAPE MELE
221
Sa 23.10. 15:55241041 %1020
1019
994
NO 5 (17)>= 10000Nicht signifikant 
CASEMENT (MIL)
93
Sa 23.10. 16:0013977 %1013
1013
1002
SSW 6 (22)>= 10000Stark bewölkt (4600)
Leicht bewölkt (670)
 
CELLE (GER-ARMY)
52
Sa 23.10. 16:2011566 %1027
1027
1021
W 2 (5)7000  
CERVIA (IT-AFB)
10
Sa 23.10. 15:55161488 %1022
1022
1021
O 1 (2)6000Stark bewölkt (550)
Wolkig (460)
 
CHAMBERY/AIX BAI
239
Sa 23.10. 16:3015551 %1024
1024
995
NNW 3 (9)>= 10000  
CIMONE MOUNTAIN
2173
Sa 23.10. 15:554287 %1025
1036
788
NO 2 (6)   
COLMAR HOUSSEN
191
Sa 23.10. 16:3014347 %1027
1027
1004
NNO 3 (10)>= 10000Nicht signifikant 
CORK ARPT/CORCAI
162
Sa 23.10. 16:30131188 %1013
1013
994
S 4 (15)6000Stark bewölkt (370)Regen/Nieselregen (schwach)
CULDROSE (NAVY)
82
Sa 23.10. 15:5013872 %1021
1021
1011
S 4 (12)>= 10000Wolkig (1300)
Stark bewölkt (980)
 
DEELEN RNLAFB
52
Sa 23.10. 16:5512982 %1027
1027
1021
S 2 (5)
SO - WSW
>= 10000Bedeckt (1700) 
DIJON/LONGVIC(FA
227
Sa 23.10. 16:3014451 %1026
1026
999
NO 3 (8)
N - O
>= 10000Nicht signifikant 
DOLE TAVAUX
196
Sa 23.10. 16:3014451 %1025
1025
1001
NO 4 (13)>= 10000Nicht signifikant 
DORTMUND/WICKEDE
127
Sa 23.10. 16:5011462 %1028
1028
1013
SW 2 (4)
SSW - W
>= 10000Nicht signifikant 
DRESDEN/KLOTZSCH
226
Sa 23.10. 16:508476 %1027
1028
1000
W 3 (8)
SW - NW
>= 10000Stark bewölkt (1200)
Wolkig (730)
Regen-Schauer (schwach)
DUBENDORF
448
Sa 23.10. 16:5012250 %1027
1028
974
ONO 3 (8)   
DUBLIN AIRPORT
85
Sa 23.10. 16:3013977 %1014
1014
1004
S 4 (11) - 7 (27)
SSO - WSW
>= 10000Stark bewölkt (910)
Leicht bewölkt (430)
 
DUESSELDORF
44
Sa 23.10. 16:5012771 %1028
1028
1023
S 2 (6)>= 10000Leicht bewölkt (910) 
EINDHOVEN RNLAFB
22
Sa 23.10. 16:5513872 %1027
1027
1024
SSW 2 (6)
SSO - SW
>= 10000Leicht bewölkt (640) 
ELSENBORN (MIL)
570
Sa 23.10. 16:259471 %1027
1029
960
Uml 1 (1)>= 10000Stark bewölkt (1100) 
EMMEN
427
Sa 23.10. 16:5012458 %1026
1027
975
N 2 (4)
NW - NNO
   
EPINAL/MIRECOURT
330
Sa 23.10. 16:3012458 %1027
1028
988
NO 3 (10)>= 10000Leicht bewölkt (1300) 
ERFURT/BINDERSLE
323
Sa 23.10. 16:509366 %1028
1029
989
W 3 (7)>= 10000Stark bewölkt (1400)
Leicht bewölkt (910)
 
FALCONARA (IT-AF
10
Sa 23.10. 16:50171694 %1022
1022
1021
NNW 3 (7)7000  
FASSBERG (GER-AF
88
Sa 23.10. 16:2011566 %1026
1026
1015
WNW 2 (6)>= 10000  
FIRENZE/PERETOLA
38
Sa 23.10. 16:50211153 %1020
1020
1015
NNO 3 (9)
N - ONO
>= 10000Nicht signifikant 
FORLI (CIV/IT-AF
32
Sa 23.10. 16:50171377 %1023
1023
1019
WSW 2 (4)4000Stark bewölkt (460)
Leicht bewölkt (300)
Nebeldunst
FRANKFURT MAIN A
113
Sa 23.10. 16:5013351 %1029
1029
1015
SW 2 (4)
SSW - W
>= 10000Leicht bewölkt (1100) 
FRIEDRICHSHAFEN
424
Sa 23.10. 16:5012354 %1027
1028
977
ONO 3 (8)>= 10000Nicht signifikant 
FRITZLAR (GER-AR
181
Sa 23.10. 16:2011150 %1028
1028
1006
W 2 (3)>= 10000Wolkig (7600)
Wolkig (1500)
 
FRONTONE
574
Sa 23.10. 15:551313100 %1021
1022
953
Windstill5000Stark bewölkt (670)
Wolkig (180)
Nebeldunst
GEMINI WIND FARM
10
Sa 23.10. 16:2512771 %1025
1025
1024
SSW 5 (16)>= 10000Stark bewölkt (1200)
Stark bewölkt (940)
Leicht bewölkt (700)
 
GENEVA/COINTRIN
416
Sa 23.10. 16:5013454 %1025
1025
976
NO 3 (10)>= 10000Nicht signifikant 
GENOVA/SESTRI
3
Sa 23.10. 16:50181164 %1021
1021
1021
NO 4 (14)>= 10000Nicht signifikant 
GHEDI (IT-AFB)
92
Sa 23.10. 15:55171168 %1022
1022
1011
SSW 1 (2)6000Wolkig (910) 
GIOVI PASS
475
Sa 23.10. 15:55111094 %1023
1024
967
 2000Bedeckt (91)Nebel-Bänke
GRAFENWOEHR
415
Sa 23.10. 15:568-153 %1027
1028
978
WNW 2 (5)9000Stark bewölkt (1500)Dunst
GRENCHEN
430
Sa 23.10. 16:5012250 %1026
1027
975
O 4 (11)>= 10000  
GRENOBLE/ST. GEO
386
Sa 23.10. 16:3012250 %1025
1026
979
NNW 3 (7)
WNW - N
>= 10000Nicht signifikant 
GRONINGEN/EELDE
4
Sa 23.10. 16:5511776 %1026
1026
1026
S 2 (5)
SSO - SW
>= 10000Bedeckt (1400)
Stark bewölkt (1100)
Wolkig (910)
 
HAHN
498
Sa 23.10. 16:5010362 %1028
1029
969
Uml 1 (2)>= 10000Wolkig (1100) 
HAMBURG/FINKENWE
13
Sa 23.10. 16:5010887 %1026
1026
1024
W 3 (7)>= 10000Bedeckt (1600)
Stark bewölkt (1100)
Leicht bewölkt (910)
 
HAMBURG/FUHLSBUT
16
Sa 23.10. 16:5010782 %1026
1026
1024
WSW 3 (9)
SW - W
>= 10000Stark bewölkt (1400)
Leicht bewölkt (490)
 
HANNOVER
54
Sa 23.10. 16:5011566 %1027
1027
1020
WSW 2 (4)
SW - W
>= 10000Stark bewölkt (1400)
Leicht bewölkt (980)
 
HERINGSDORF
28
Sa 23.10. 16:5010466 %1024
1024
1021
WNW 2 (6)
W - NNW
>= 10000Nicht signifikant 
HOHENFELS (USA-A
442
Sa 23.10. 15:569053 %1028
1029
975
NW 2 (4)>= 10000Stark bewölkt (1500)
Stark bewölkt (1300)
 
HOHN (GER-AFB)
17
Sa 23.10. 16:2011566 %1025
1025
1023
W 3 (7)>= 10000Stark bewölkt (7300)
Stark bewölkt (1400)
Leicht bewölkt (910)
 
HOLZDORF
79
Sa 23.10. 16:2010466 %1026
1026
1016
W 3 (8)>= 10000Stark bewölkt (1500)
Leicht bewölkt (850)
 
HYERES/LE PALYVE
4
Sa 23.10. 16:30211360 %1020
1020
1020
O 3 (10)
Bald möglich:
NO 2 (6)
>= 10000Nicht signifikant 
ILLESHEIM (USA-A
325
Sa 23.10. 15:5610466 %1029
1030
990
WNW 2 (4)>= 10000Bedeckt (1300) 
INGOLSTADT(GER-M
370
Sa 23.10. 16:2012147 %1028
1029
984
NNO 2 (3)>= 10000Leicht bewölkt (1400) 
INNSBRUCK AIRPOR
581
Sa 23.10. 16:5013351 %1026
1027
957
OSO 2 (5)
O - SSO
>= 10000Nicht signifikant 
ISTRANA (IT-AFB)
41
Sa 23.10. 15:55201156 %1022
1022
1017
OSO 3 (7)>= 10000Nicht signifikant 
KARLOVY VARY
604
Sa 23.10. 16:307-061 %1027
1029
956
W 2 (6)>= 10000Stark bewölkt (1500) 
KARLSRUHE/BADEN
124
Sa 23.10. 16:5014658 %1028
1028
1013
NNO 3 (10)>= 10000Nicht signifikant 
KASSEL/CALDEN
285
Sa 23.10. 16:5010153 %1028
1029
994
WNW 2 (5)>= 10000Stark bewölkt (1400)
Leicht bewölkt (1100)
 
KATTERBACH (USA-
467
Sa 23.10. 15:569157 %1028
1029
972
NNW 2 (4)>= 10000Bedeckt (1300) 
KBELY
286
Sa 23.10. 16:0010-050 %1027
1028
993
W 3 (9)>= 10000Stark bewölkt (1400) 
KERRY ARPT
34
Sa 23.10. 16:30141288 %1010
1010
1006
S 4 (14)>= 10000Wolkig (730)Regen (schwach)
KIEL/HOLTENAU CI
31
Sa 23.10. 16:509366 %1025
1025
1021
W 2 (6)>= 10000Nicht signifikant 
KLAGENFURT(CIV/M
441
Sa 23.10. 16:5013662 %1025
1026
973
O 2 (6)
ONO - OSO
>= 10000Wolkig (1400)
Leicht bewölkt (910)
 
KLEINE-BROGEL(BA
64
Sa 23.10. 16:2513872 %1027
1027
1019
S 2 (3)>= 10000Leicht bewölkt (640) 
KOELN/BONN
99
Sa 23.10. 16:5012771 %1028
1028
1016
O 2 (3)>= 10000Stark bewölkt (1400)
Leicht bewölkt (490)
 
LA CORUNA/ALVEDR
103
Sa 23.10. 16:30171272 %1021
1021
1009
NNO 2 (4)
NNW - O
>= 10000Nicht signifikant 
LAAGE
40
Sa 23.10. 16:2010571 %1025
1025
1020
WNW 3 (10)>= 10000Leicht bewölkt (910) 
LAHR (CAN-AFB)
156
Sa 23.10. 16:5013558 %1028
1028
1009
N 3 (7)>= 10000Nicht signifikant 
LANDS END
122
Sa 23.10. 16:5012982 %1020
1020
1005
S 5 (18)>= 10000Stark bewölkt (1000)
Leicht bewölkt (730)
 
LAUPHEIM (GER-AR
549
Sa 23.10. 16:2011150 %1027
1028
962
O 3 (7)>= 10000Wolkig (1200)
Leicht bewölkt (910)
 
LE LUC/LE CANNET
78
Sa 23.10. 16:30221046 %1020
1020
1011
OSO 3 (8)
O - SSO
>= 10000  
LECHFELD (GER-AF
562
Sa 23.10. 16:2010257 %1027
1028
961
N 2 (5)>= 10000  
LEEUWARDEN RNLAF
2
Sa 23.10. 16:5511882 %1026
1026
1026
S 3 (8)
SSO - SW
>= 10000Stark bewölkt (12000)
Leicht bewölkt (1800)
 
LEIPZIG/SCHKEUDI
149
Sa 23.10. 16:5010676 %1028
1028
1010
W 3 (8)>= 10000Leicht bewölkt (1000) 
LELYSTAD
-6
Sa 23.10. 16:5511987 %1026
1026
1027
S 2 (6)>= 10000Nicht signifikant 
LES EPLATURES
1027
Sa 23.10. 16:509053 %1025
1028
906
OSO 2 (5)
ONO - SO
>= 10000Nicht signifikant 
LEVALDIGI
380
Sa 23.10. 16:5017959 %1023
1023
978
ONO 2 (3)
NNO - O
>= 10000  
LINZ (CIV/MIL)
313
Sa 23.10. 16:5011462 %1028
1029
991
WNW 4 (11)>= 10000Leicht bewölkt (850) 
LJUBLJANA/BRNIK
385
Sa 23.10. 16:3010676 %1027
1028
981
Uml 1 (2)>= 10000Stark bewölkt (1400)
Leicht bewölkt (610)
 
LOCARNO
600
Sa 23.10. 16:5017545 %1023
1023
952
Uml 1 (2)   
LUEBECK/BLANKENS
16
Sa 23.10. 16:5010571 %1026
1026
1024
WSW 2 (4)
SSW - WNW
>= 10000Leicht bewölkt (760) 
LUGANO (PVT/AUT)
276
Sa 23.10. 16:50171063 %1023
1023
990
S 2 (3)
SO - SSW
8000Leicht bewölkt (1400) 
LUXEMBOURG (AUT)
379
Sa 23.10. 16:5010782 %1028
1029
983
O 2 (5)
ONO - SO
>= 10000Wolkig (1300)
Leicht bewölkt (610)
 
LUXEUIL/ST. SAUV
273
Sa 23.10. 16:3015344 %1026
1026
993
SSO 2 (6)
SO - S
>= 10000Nicht signifikant 
LYON/SATOLAS
240
Sa 23.10. 16:3013454 %1025
1025
996
N 2 (6)
NW - NO
>= 10000Leicht bewölkt (1100) 
MANNHEIM
100
Sa 23.10. 16:5013351 %1029
1029
1017
ONO 2 (4)>= 10000Leicht bewölkt (1000) 
MARSEILLE/MARIGN
36
Sa 23.10. 16:30201053 %1020
1020
1016
WNW 3 (8)>= 10000Nicht signifikant 
MEIERWIK
33
Sa 23.10. 16:2012458 %1024
1024
1020
NW 4 (11)>= 10000  
MEIRINGEN
577
Sa 23.10. 16:5010362 %1025
1026
957
NO 4 (15) - 6 (25)
N - O
   
MEMMINGEN ALLGAU
633
Sa 23.10. 16:509261 %1027
1029
952
NO 3 (7)>= 10000Leicht bewölkt (1100) 
MEPPEN
21
Sa 23.10. 16:2011566 %1027
1027
1024
SW 2 (4)   
METZ-NANCY-LORRA
264
Sa 23.10. 16:3012562 %1028
1028
996
NO 3 (8)>= 10000Bedeckt (1400) 
MILANO/LINATE
103
Sa 23.10. 16:50171272 %1023
1023
1011
Uml 1 (1)6000Leicht bewölkt (460) 
MILANO/MALPENSA
211
Sa 23.10. 16:50181268 %1023
1023
998
Uml 1 (1)7000Nicht signifikant 
MONCHENGLADBACH
38
Sa 23.10. 16:5011776 %1028
1028
1023
SO 2 (3)>= 10000Nicht signifikant 
MUENSTER/OSNABRU
52
Sa 23.10. 16:5012458 %1028
1028
1022
WSW 3 (7)>= 10000Leicht bewölkt (980) 
MUNICH-FLUGHAFEN
447
Sa 23.10. 16:5010362 %1028
1029
975
NNW 2 (5)>= 10000Leicht bewölkt (1000) 
NANCY/ESSEY
217
Sa 23.10. 16:3013558 %1028
1028
1002
NO 3 (8)>= 10000Stark bewölkt (1500) 
NANCY/OCHEY (FAF
350
Sa 23.10. 16:3013454 %1027
1027
985
ONO 3 (8)
NNO - OSO
>= 10000Stark bewölkt (1300) 
NEUBURG/DONAU
387
Sa 23.10. 16:2011254 %1028
1029
982
N 2 (6)>= 10000Leicht bewölkt (1300) 
NICE/COTE D'AZUR
10
Sa 23.10. 16:30221357 %1020
1020
1019
ONO 3 (10)>= 10000Nicht signifikant 
NIEDERRHEIN
32
Sa 23.10. 16:5014658 %1027
1027
1023
S 3 (7)>= 10000Nicht signifikant 
NIEDERSTETTEN (G
473
Sa 23.10. 16:209261 %1028
1029
972
NNO 2 (3)>= 10000Stark bewölkt (1100)
Leicht bewölkt (760)
 
NOERVENICH (GAF)
135
Sa 23.10. 16:2012667 %1028
1028
1012
OSO 2 (3)>= 10000  
NORDHOLZ (GER-NA
31
Sa 23.10. 16:2011671 %1026
1026
1022
W 3 (8)>= 10000Stark bewölkt (1400)
Leicht bewölkt (610)
 
NUERNBERG
312
Sa 23.10. 16:5010362 %1029
1030
992
NNW 2 (3)
WNW - N
>= 10000Stark bewölkt (1400)
Leicht bewölkt (760)
 
OBERPFAFFENHOFEN
600
Sa 23.10. 16:509366 %1028
1030
957
N 2 (6)>= 10000  
PADERBORN/LIPPST
213
Sa 23.10. 16:5010153 %1028
1029
1002
WSW 2 (4)
SSW - NW
>= 10000Leicht bewölkt (1100) 
PAGANELLA MOUNTA
2129
Sa 23.10. 15:554-648 %1024
1035
791
W 2 (3)>= 10000Nicht signifikant 
PARMA
50
Sa 23.10. 15:50191264 %1023
1023
1017
Uml 2 (4)5000Wolkig (910)Nebeldunst
PAYERNE (MIL/AUT
491
Sa 23.10. 16:5012458 %1026
1027
968
NO 3 (8)
NNO - O
   
PERUGIA
205
Sa 23.10. 16:50191473 %1020
1020
995
NNO 3 (10)>= 10000Wolkig (2600) 
PIACENZA (IT-AFB
138
Sa 23.10. 15:55151494 %1022
1022
1005
NNW 2 (3)3200Wolkig (460)Nebeldunst
PIAN ROSA (MTN T
3488
Sa 23.10. 15:55-3-680 %1027
1058
668
WSW 2 (6)>= 10000Nicht signifikant 
PISA (CIV/IT-AFB
2
Sa 23.10. 16:45231044 %1020
1020
1020
NNO 3 (9)>= 10000Leicht bewölkt (910) 
PLZEN LINE
362
Sa 23.10. 16:0011-240 %1028
1029
985
Uml 2 (5)>= 10000Stark bewölkt (1500) 
POINT MARINA/RAV
6
Sa 23.10. 15:55171482 %1023
1023
1022
NNO 2 (4)   
PORTOROZ
2
Sa 23.10. 16:3018645 %1022
1022
1022
O 2 (6)
NO - OSO
>= 10000Nicht signifikant 
PRAGUE/RUZYNE
365
Sa 23.10. 16:3010-146 %1027
1028
983
WNW 3 (7)
W - NNW
>= 10000Leicht bewölkt (1400) 
PULA
63
Sa 23.10. 16:3017648 %1022
1022
1014
ONO 4 (11)
N - O
>= 10000Nicht signifikant 
RESIA PASS
1800
Sa 23.10. 15:5512-726 %1023
1026
823
N 2 (6)>= 10000Nicht signifikant 
RHEINECK/ALTENRH
398
Sa 23.10. 16:5013351 %1026
1026
979
Uml 2 (3)>= 10000Nicht signifikant 
RIJEKA/OMISALJ
85
Sa 23.10. 16:3016136 %1023
1023
1013
NO 3 (10)>= 10000Nicht signifikant 
RIMINI (CIV/IT-A
13
Sa 23.10. 16:50161594 %1023
1023
1021
NW 2 (6)6000Stark bewölkt (370)
Wolkig (210)
Regen (schwach)
RIVOLTO (IT-AFB)
53
Sa 23.10. 15:5518749 %1022
1022
1016
ONO 4 (12)>= 10000Nicht signifikant 
ROLLE PASS
2006
Sa 23.10. 13:557166 %1025
1032
804
SSO 2 (5)>= 10000Wolkig (910) 
RONCHI LEGIONARI
12
Sa 23.10. 16:5016651 %1023
1023
1022
OSO 3 (10)>= 10000  
SAARBRUECKEN
320
Sa 23.10. 16:5011671 %1028
1029
990
Uml 1 (2)>= 10000Stark bewölkt (1400)
Leicht bewölkt (730)
 
SALON (FAFB)
60
Sa 23.10. 16:3018645 %1021
1021
1014
NNW 4 (14)>= 10000Nicht signifikant 
SALZBURG AIRPORT
450
Sa 23.10. 16:5011254 %1028
1029
974
NNW 2 (6)>= 10000Leicht bewölkt (1500) 
SAMEDAN
1706
Sa 23.10. 16:5011-1317 %1024
1027
834
Uml 1 (2)>= 10000Nicht signifikant 
SCHAFFEN
54
Sa 23.10. 16:2513872 %1027
1027
1020
SSO 2 (4)>= 10000Wolkig (1700)
Leicht bewölkt (730)
 
SCHLESWIG(GER-NA
25
Sa 23.10. 16:2011566 %1025
1025
1022
W 3 (9)7000  
SCHWAEBISCH HALL
400
Sa 23.10. 16:509366 %1029
1030
981
NNO 2 (5)>= 10000Wolkig (1300) 
SCILLY SAINT MAR
31
Sa 23.10. 16:50141077 %1019
1019
1015
S 7 (29)>= 10000Stark bewölkt (1200)
Leicht bewölkt (610)
 
SHANNON AIRPORT
20
Sa 23.10. 16:30141288 %1010
1010
1008
SSO 5 (20)>= 10000Stark bewölkt (1800)
Stark bewölkt (610)
Leicht bewölkt (370)
 
SIEGERLAND
602
Sa 23.10. 16:507270 %1028
1030
957
NW 2 (5)>= 10000Bedeckt (850)
Leicht bewölkt (640)
 
SION (MIL/CIV/AU
481
Sa 23.10. 16:5013558 %1023
1024
966
W 4 (11)>= 10000Nicht signifikant 
SLIGO ARPT
3
Sa 23.10. 16:30121088 %1008
1008
1008
SSO 4 (12)
OSO - S
3500Bedeckt (730)
Stark bewölkt (550)
 
SONDERBORG AIRPO
23
Sa 23.10. 16:5010571 %1025
1025
1022
W 2 (4)
SW - WNW
>= 10000  
SPANGDAHLEM (USA
365
Sa 23.10. 16:5611671 %1028
1029
984
SW 2 (3)>= 10000Stark bewölkt (1300)
Wolkig (1000)
Leicht bewölkt (670)
 
STRASBOURG/ENTZH
154
Sa 23.10. 16:3014347 %1028
1028
1009
NNO 3 (7)
N - NO
>= 10000Stark bewölkt (1600) 
STUTTGART/ECHTER
419
Sa 23.10. 16:5011358 %1028
1029
978
NNO 3 (9)>= 10000Wolkig (1400)
Leicht bewölkt (1200)
 
SZCZECIN/GOLENIO
3
Sa 23.10. 16:3010466 %1023
1023
1023
WNW 5 (16)>= 10000Leicht bewölkt (940) 
TARVISIO
778
Sa 23.10. 15:5510676 %1023
1025
932
ONO 2 (5) - 5 (18)>= 10000Nicht signifikant 
TORINO/BRIC CROC
710
Sa 23.10. 15:55131188 %1023
1024
940
NO 2 (3)>= 10000Wolkig (610) 
TORINO/CASELLE
287
Sa 23.10. 16:5017959 %1023
1023
989
ONO 2 (5)8000Nicht signifikant 
TREVISO(CIV/IT-A
23
Sa 23.10. 16:50201260 %1022
1022
1019
SSO 2 (5)
O - S
>= 10000Leicht bewölkt (1200) 
TRIESTE
20
Sa 23.10. 15:5516548 %1022
1022
1020
NO 4 (14)>= 10000Nicht signifikant 
VENEZIA/TESSERA
6
Sa 23.10. 16:50181059 %1022
1022
1021
OSO 3 (9)>= 10000Nicht signifikant 
VOLKEL RNLAFB
21
Sa 23.10. 16:5513872 %1027
1027
1024
SSW 3 (7)
SSO - SW
>= 10000Bedeckt (1800) 
WATERFORD ARPT
36
Sa 23.10. 16:3013977 %1016
1016
1012
SSW 6 (23)>= 10000Stark bewölkt (700) 
WESTERLAND/SYLT
20
Sa 23.10. 16:5011566 %1025
1025
1023
W 3 (7)>= 10000Wolkig (1400) 
WIESBADEN (USA-A
141
Sa 23.10. 16:5611-047 %1029
1029
1012
Windstill>= 10000Wolkig (1500) 
WITTMUNDHAVEN(GA
12
Sa 23.10. 16:2012562 %1026
1026
1025
WSW 2 (6)>= 10000Wolkig (11000)
Leicht bewölkt (980)
 
WUNSTORF (GER-AF
70
Sa 23.10. 16:2011566 %1027
1027
1019
W 2 (6)6000  
ZELTWEG (MIL)
682
Sa 23.10. 16:5013-138 %1025
1026
945
O 3 (7) Leicht bewölkt (1500) 
ZUID-LIMBURG/BEE
116
Sa 23.10. 16:5513872 %1027
1027
1013
SSO 2 (5)
SO - S
>= 10000  
ZURICH-KLOTEN (A
432
Sa 23.10. 16:5012250 %1027
1028
976
ONO 3 (9)
NO - O
>= 10000Nicht signifikant 

Altimeter: Einstellung am Altimeter (Höhenmesser), die Höhe 0 muss auf diesen Luftdruckwert zeigen, damit das Gerät die Stationshöhe richtig anzeigt.

NN: Luftdruck reduziert auf "Normal Null", auf Meereshöhe, dieser von der Temperatur abhängige Wert wird bisweilen unkorrekt einfach als "Luftdruck" bezeichnet. Eigentlich nur eine fiktive Größe, die es erlaubt, Stationen auf unterschiedlichen Höhen miteinander zu vergleichen.

Station: Realer Luftdruck an der Station.